Airfield :
LOGIN :

Register | Disclaimer

   EN    FR    IT 

 










Legend :    VFR   Marginal VFR   IFR   Intensive IFR   Very Intensive IFR
Visi :
Ceiling :
>= 8 km
>= 3000ft
5 to 8 km
1000 to 3000 ft
1500m to 5 km
500 to 1000 ft
800 to 1500m
200 to 500 ft
< 800m
< 200 ft
Symbols :   Thunderstorms  Fog  Heavy snow  Heavy precipitations  Wind > 20 kt
SIGMETs :     Misc.  Thunderstorms  Icing  Turbulence  Mountain Waves  Volcanic Ashes







- Airport Elevation : 44 ft
- IATA code : SOU
- Download approach charts


EGHI - Southampton

CURRENT METAR :
  • 251020Z 26010KT 230V300 9999 VCSH FEW028 SCT033 13/07 Q1014

EXPIRED METARs :
  • 250950Z 27010KT 220V300 9999 FEW028 SCT033 12/04 Q1014
  • 250920Z 26010KT 220V320 9999 FEW022 SCT030 11/04 Q1014
  • 250850Z 27008KT 220V300 9999 FEW022 SCT027 11/05 Q1014
  • 250820Z 27009KT 220V310 9999 FEW015 SCT024 10/05 Q1013
  • 250750Z 28010KT 230V320 9999 FEW015 SCT022 10/07 Q1013

TAF TAF EGHI
Valid from the 25 at 09:00 until the 25 at 18:00 UTC


250800Z 2509/2518 25012KT 9999 FEW025 SCT035
TEMPO 2509/2518 26015G28KT 7000 SHRA
PROB40
TEMPO 2510/2518 3000 +SHRAGS TS BKN014 BKN020CB
ATIS : +44 23 8062 7103
No reported NOTAMs for that airfield.



MET'MAP, your aeronautical weather chart ! - Copyright ORBIFLY December 2007 - Disclaimer

ORBIFLY MET'MAP TEAM :

Programming & Development : Alexandra Zaïnal
Concept & Development : Baudouin d'Aumeries
Co-Development & Prog : Marc-Olivier Méhu
Technical & hardware support : Manuel Goepfert

Contact : metmap@orbifly.com




SOURCES & CREDITS :

   NOAA